Girolata — FPOD — position and weather

sailwx.info

Track history (hours):
 
Tides and Currents Weather Stations Pressure Air Temp Water Temp Dewpoint Dewpoint Depression Visibility Wind Speed Wind Dir Waves Ship Positions

Girolata

Last reported at 2019-Jun-16 01:36 UTC. Time now 2019-Jun-16 14:35 UTC.
Position N 42°48' E 006°10'.

Length 177 m; beam 27 m.

Type: Passenger vessel. MMSI: 226245000.

Date/timePositionNaut miles runAvg speedWind from/ knotsBaromVisibWave heightAir tempDewpointWater temp
2019-Jun-16 01:36N 42°48' E 006°10'216.0
2019-Jun-16 01:30N 42°48' E 006°12'815.8
2019-Jun-16 01:00N 42°44' E 006°21'815.3
2019-Jun-16 00:30N 42°40' E 006°31'1515.4
2019-Jun-15 23:30N 42°33' E 006°49'815.3
2019-Jun-15 22:58N 42°29' E 006°59'715.5
2019-Jun-15 22:30N 42°25' E 007°07'915.7
2019-Jun-15 21:57N 42°20' E 007°17'715.7
2019-Jun-15 21:30N 42°17' E 007°25'815.4
2019-Jun-15 21:00N 42°13' E 007°34'815.2
2019-Jun-15 20:30N 42°10' E 007°43'815.4
2019-Jun-15 20:00N 42°06' E 007°52'815.5
2019-Jun-15 19:30N 42°02' E 008°01'815.7
2019-Jun-15 19:00N 41°58' E 008°11'815.8
2019-Jun-15 18:30N 41°54' E 008°20'815.7
2019-Jun-15 18:00N 41°50' E 008°29'714.8
2019-Jun-15 17:30N 41°50' E 008°39'711.6
2019-Jun-15 16:54N 41°56' E 008°45'11 0.8
2019-Jun-15 03:28N 41°49' E 008°32'1217.8
2019-Jun-15 02:47N 41°55' E 008°18'15317.7
2019-Jun-14 18:08N 43°13' E 005°18'215.8
2019-Jun-14 18:00N 43°15' E 005°19'4 0.6
2019-Jun-14 10:33N 43°19' E 005°22'0 0.0
2019-Jun-14 08:33N 43°19' E 005°22'0 0.0
2019-Jun-14 07:21N 43°19' E 005°22'0 0.0
2019-Jun-14 06:51N 43°19' E 005°22'0 0.0
2019-Jun-14 05:27N 43°19' E 005°22'0 0.0
2019-Jun-14 04:53N 43°19' E 005°22'0 0.8
2019-Jun-14 04:30N 43°18' E 005°22'510.8
2019-Jun-14 04:00N 43°14' E 005°18'5417.5
2019-Jun-14 00:56N 42°45' E 006°20'817.1
2019-Jun-14 00:27N 42°41' E 006°30'1017.0
2019-Jun-13 23:52N 42°36' E 006°42'617.3
2019-Jun-13 23:31N 42°33' E 006°49'917.2
2019-Jun-13 23:01N 42°29' E 006°60'917.2
2019-Jun-13 22:30N 42°25' E 007°10'917.2
2019-Jun-13 22:01N 42°21' E 007°20'917.1
2019-Jun-13 21:31N 42°17' E 007°30'816.3
2019-Jun-13 21:01N 42°11' E 007°38'817.0
2019-Jun-13 20:31N 42°07' E 007°48'816.9
2019-Jun-13 20:00N 42°03' E 007°58'917.2
2019-Jun-13 19:31N 41°59' E 008°08'917.6
2019-Jun-13 19:00N 41°55' E 008°19'917.5
2019-Jun-13 18:30N 41°50' E 008°29'816.4
2019-Jun-13 18:00N 41°52' E 008°40'510.2
2019-Jun-13 17:29N 41°56' E 008°45'0 0.0
2019-Jun-13 16:59N 41°56' E 008°45'0 0.0
2019-Jun-13 16:20N 41°56' E 008°45'0 0.0
2019-Jun-13 15:59N 41°56' E 008°45'0 0.0
2019-Jun-13 15:29N 41°56' E 008°45'0 0.0
2019-Jun-13 14:59N 41°56' E 008°45'0 0.0
2019-Jun-13 14:29N 41°56' E 008°45'0 0.0
2019-Jun-13 13:50N 41°56' E 008°45'0 0.0
2019-Jun-13 13:29N 41°56' E 008°45'0 0.0
2019-Jun-13 12:50N 41°56' E 008°45'0 0.0
2019-Jun-13 12:29N 41°56' E 008°45'0 0.0
2019-Jun-13 11:59N 41°56' E 008°45'0 0.0
2019-Jun-13 11:23N 41°56' E 008°45'0 0.0
2019-Jun-13 10:56N 41°56' E 008°45'0 0.0
2019-Jun-13 10:29N 41°56' E 008°45'0 0.0
2019-Jun-13 09:29N 41°56' E 008°45'0 0.0
2019-Jun-13 08:59N 41°56' E 008°45'0 0.0
2019-Jun-13 07:44N 41°56' E 008°45'0 0.0
2019-Jun-13 07:23N 41°56' E 008°45'0 0.0
2019-Jun-13 06:44N 41°56' E 008°45'0 0.0
2019-Jun-13 05:56N 41°56' E 008°45'0 0.0
2019-Jun-13 05:26N 41°56' E 008°45'0 0.0
2019-Jun-13 04:56N 41°56' E 008°45'0 0.0
2019-Jun-13 04:30N 41°56' E 008°45'3 6.2
2019-Jun-13 04:01N 41°53' E 008°43'917.9
2019-Jun-13 03:31N 41°49' E 008°32'918.7
2019-Jun-13 03:00N 41°53' E 008°21'918.8
2019-Jun-13 02:30N 41°58' E 008°11'1018.4
2019-Jun-13 01:59N 42°03' E 007°59'918.4
2019-Jun-13 01:30N 42°07' E 007°49'917.9
2019-Jun-13 01:00N 42°11' E 007°38'918.2
2019-Jun-13 00:30N 42°16' E 007°28'918.3
2019-Jun-13 00:00N 42°21' E 007°17'1718.4
2019-Jun-12 23:06N 42°29' E 006°57'418.8
2019-Jun-12 22:52N 42°31' E 006°52'1018.7
2019-Jun-12 22:20N 42°36' E 006°41'1218.7
2019-Jun-12 21:41N 42°42' E 006°26'418.8
2019-Jun-12 21:29N 42°43' E 006°22'5518.7
2019-Jun-12 18:34N 43°12' E 005°18'118.1
2019-Jun-12 18:30N 43°13' E 005°18'6 8.1
2019-Jun-12 17:47N 43°19' E 005°22'0 0.0
2019-Jun-12 17:17N 43°19' E 005°22'0 0.0
2019-Jun-12 15:53N 43°19' E 005°22'0 0.0
2019-Jun-12 12:53N 43°19' E 005°22'0 0.0
2019-Jun-12 11:29N 43°19' E 005°22'0 0.0
2019-Jun-12 06:05N 43°19' E 005°22'0 0.0
2019-Jun-12 05:35N 43°19' E 005°22'0 0.0
2019-Jun-12 04:55N 43°19' E 005°22'0 0.8
2019-Jun-12 04:30N 43°18' E 005°22'510.4
2019-Jun-12 04:00N 43°14' E 005°18'7816.7
2019-Jun-11 23:21N 42°34' E 006°49'1116.1
2019-Jun-11 22:40N 42°27' E 007°01'516.4
2019-Jun-11 22:21N 42°25' E 007°07'616.4
2019-Jun-11 22:00N 42°22' E 007°14'816.7
2019-Jun-11 21:31N 42°18' E 007°24'816.7
2019-Jun-11 21:01N 42°14' E 007°34'816.7
2019-Jun-11 20:30N 42°10' E 007°44'816.4
2019-Jun-11 20:01N 42°07' E 007°54'816.5
2019-Jun-11 19:31N 42°01' E 008°02'815.9
2019-Jun-11 19:01N 41°57' E 008°12'816.6
2019-Jun-11 18:30N 41°54' E 008°22'816.5
2019-Jun-11 18:01N 41°50' E 008°31'815.8
2019-Jun-11 17:30N 41°52' E 008°42'4 1.2
2019-Jun-11 13:43N 41°56' E 008°45'0 0.0
2019-Jun-11 13:13N 41°56' E 008°45'0 0.0
2019-Jun-11 12:58N 41°56' E 008°45'0 0.0
2019-Jun-11 12:28N 41°56' E 008°45'0 0.0
2019-Jun-11 11:31N 41°56' E 008°45'0 0.0
2019-Jun-11 11:22N 41°56' E 008°45'0 0.0
2019-Jun-11 10:58N 41°56' E 008°45'0 0.0
2019-Jun-11 10:28N 41°56' E 008°45'22 3.1
2019-Jun-11 03:17N 41°57' E 008°14'615.5
2019-Jun-11 02:55N 41°60' E 008°08'2115.7
2019-Jun-11 01:34N 42°10' E 007°43'1815.5
2019-Jun-11 00:25N 42°19' E 007°22'10515.6
2019-Jun-10 17:41N 43°12' E 005°18'213.6
2019-Jun-10 17:30N 43°14' E 005°19'5 0.8
2019-Jun-10 11:49N 43°19' E 005°22'0 0.0
2019-Jun-10 06:43N 43°19' E 005°22'0 0.0
2019-Jun-10 06:13N 43°19' E 005°22'0 0.0
2019-Jun-10 06:00N 43°19' E 005°22'2 3.1
2019-Jun-10 05:30N 43°17' E 005°20'4313.8
2019-Jun-10 02:24N 42°50' E 006°05'2615.2
2019-Jun-10 00:42N 42°38' E 006°36'1214.8
2019-Jun-09 23:52N 42°32' E 006°51'514.7
2019-Jun-09 23:30N 42°29' E 006°57'714.8
2019-Jun-09 23:00N 42°25' E 007°06'714.6
2019-Jun-09 22:30N 42°22' E 007°14'714.6
2019-Jun-09 22:00N 42°18' E 007°23'714.4
2019-Jun-09 21:30N 42°14' E 007°31'714.6
2019-Jun-09 21:00N 42°11' E 007°40'714.7
2019-Jun-09 20:30N 42°08' E 007°49'714.6
2019-Jun-09 20:00N 42°04' E 007°57'714.7
2019-Jun-09 19:30N 42°00' E 008°06'714.5
2019-Jun-09 19:00N 41°57' E 008°14'714.6
2019-Jun-09 18:30N 41°53' E 008°23'714.5
2019-Jun-09 18:00N 41°49' E 008°31'713.7
2019-Jun-09 17:30N 41°51' E 008°40'6 0.5
2019-Jun-09 05:35N 41°55' E 008°45'2 9.0
2019-Jun-09 05:23N 41°54' E 008°44'615.3
2019-Jun-09 05:01N 41°50' E 008°38'1514.5
2019-Jun-09 04:01N 41°54' E 008°20'815.3
2019-Jun-09 03:31N 41°58' E 008°11'815.4
2019-Jun-09 03:01N 42°02' E 008°02'815.1
2019-Jun-09 02:31N 42°05' E 007°53'815.6
2019-Jun-09 02:01N 42°09' E 007°44'815.5
2019-Jun-09 01:30N 42°13' E 007°34'815.4
2019-Jun-09 01:00N 42°17' E 007°25'815.4
2019-Jun-09 00:31N 42°21' E 007°17'815.5
2019-Jun-09 00:01N 42°24' E 007°07'815.4
2019-Jun-08 23:31N 42°28' E 006°58'815.4
2019-Jun-08 23:01N 42°32' E 006°49'815.3
2019-Jun-08 22:31N 42°36' E 006°40'815.2
2019-Jun-08 22:01N 42°40' E 006°31'815.1
2019-Jun-08 21:31N 42°43' E 006°22'714.8
2019-Jun-08 21:01N 42°47' E 006°13'714.7
2019-Jun-08 20:30N 42°50' E 006°05'714.9
2019-Jun-08 20:00N 42°54' E 005°56'3014.9
2019-Jun-08 17:59N 43°10' E 005°21'613.4
2019-Jun-08 17:31N 43°16' E 005°20'3 2.2
2019-Jun-08 16:05N 43°19' E 005°22'0 0.0
2019-Jun-08 08:29N 43°19' E 005°22'0 0.0
2019-Jun-08 07:59N 43°19' E 005°22'0 0.0
2019-Jun-08 07:14N 43°19' E 005°22'0 0.0
2019-Jun-08 06:47N 43°19' E 005°22'0 0.0
2019-Jun-08 06:29N 43°19' E 005°22'0 0.0
2019-Jun-08 05:50N 43°19' E 005°22'0 0.0
2019-Jun-08 05:17N 43°19' E 005°22'0 0.0
2019-Jun-08 05:00N 43°19' E 005°22'2 3.2
2019-Jun-08 04:30N 43°17' E 005°20'3414.2
2019-Jun-08 02:05N 42°55' E 005°55'116.3
2019-Jun-08 02:00N 42°54' E 005°57'816.5
2019-Jun-08 01:30N 42°50' E 006°07'816.6
2019-Jun-08 01:00N 42°46' E 006°16'816.6
2019-Jun-08 00:30N 42°42' E 006°26'916.6
2019-Jun-07 23:56N 42°37' E 006°37'1816.2
2019-Jun-07 22:51N 42°29' E 006°58'716.1
2019-Jun-07 22:26N 42°25' E 007°06'716.0
2019-Jun-07 21:59N 42°22' E 007°15'715.7
2019-Jun-07 21:30N 42°18' E 007°23'815.5
2019-Jun-07 20:59N 42°14' E 007°33'915.0
2019-Jun-07 20:24N 42°10' E 007°43'614.9
2019-Jun-07 20:00N 42°07' E 007°50'714.8
2019-Jun-07 19:30N 42°04' E 007°59'815.3
2019-Jun-07 19:00N 41°60' E 008°08'815.6
2019-Jun-07 18:30N 41°56' E 008°17'915.6
2019-Jun-07 17:54N 41°51' E 008°28'915.6
2019-Jun-07 17:18N 41°51' E 008°40'5 0.5
2019-Jun-07 07:30N 41°56' E 008°45'5 1.3
2019-Jun-07 03:54N 41°51' E 008°41'718.0
2019-Jun-07 03:30N 41°50' E 008°32'918.0
2019-Jun-07 03:00N 41°54' E 008°22'918.2
2019-Jun-07 02:30N 41°57' E 008°10'816.7
2019-Jun-07 02:00N 42°01' E 008°01'917.2
2019-Jun-07 01:30N 42°06' E 007°50'917.5
2019-Jun-07 01:00N 42°10' E 007°40'917.4
2019-Jun-07 00:30N 42°15' E 007°30'917.5
2019-Jun-07 00:00N 42°19' E 007°20'917.9
2019-Jun-06 23:30N 42°24' E 007°10'917.7
2019-Jun-06 22:58N 42°28' E 006°58'1117.7
2019-Jun-06 22:23N 42°33' E 006°45'717.5
2019-Jun-06 22:00N 42°36' E 006°38'1017.5
2019-Jun-06 21:27N 42°41' E 006°27'817.6
2019-Jun-06 21:00N 42°45' E 006°17'917.7
2019-Jun-06 20:30N 42°49' E 006°07'4218.3
2019-Jun-06 18:11N 43°12' E 005°18'315.6
2019-Jun-06 18:00N 43°15' E 005°19'4 1.0
2019-Jun-06 13:45N 43°19' E 005°22'0 0.0
2019-Jun-06 13:07N 43°19' E 005°22'0 0.0
2019-Jun-06 12:23N 43°19' E 005°22'0 0.0
2019-Jun-06 10:21N 43°19' E 005°22'0 0.0
2019-Jun-06 10:00N 43°19' E 005°22'0 0.0
2019-Jun-06 09:30N 43°19' E 005°22'0 0.0
2019-Jun-06 09:00N 43°19' E 005°22'0 0.0
2019-Jun-06 08:17N 43°19' E 005°22'0 0.0
2019-Jun-06 07:59N 43°19' E 005°22'0 0.0
2019-Jun-06 06:48N 43°19' E 005°22'0 0.0
2019-Jun-06 06:11N 43°19' E 005°22'0 0.0
2019-Jun-06 05:59N 43°19' E 005°22'0 0.0
2019-Jun-06 05:29N 43°19' E 005°22'0 0.0
2019-Jun-06 05:00N 43°19' E 005°22'0 0.7
2019-Jun-06 04:28N 43°18' E 005°22'510.2
2019-Jun-06 04:01N 43°14' E 005°18'  
Track history (hours):
 
Tides and Currents Weather Stations Pressure Air Temp Water Temp Dewpoint Dewpoint Depression Visibility Wind Speed Wind Dir Waves Ship Positions

Girolata

Last reported at 2019-Jun-16 01:36 UTC. Time now 2019-Jun-16 14:35 UTC.
Position N 42°48' E 006°10'.

Length 177 m; beam 27 m.

Type: Passenger vessel. MMSI: 226245000.

Date/timePositionNaut miles runAvg speedWind from/ knotsBaromVisibWave heightAir tempDewpointWater temp
2019-Jun-16 01:36N 42°48' E 006°10'216.0
2019-Jun-16 01:30N 42°48' E 006°12'815.8
2019-Jun-16 01:00N 42°44' E 006°21'815.3
2019-Jun-16 00:30N 42°40' E 006°31'1515.4
2019-Jun-15 23:30N 42°33' E 006°49'815.3
2019-Jun-15 22:58N 42°29' E 006°59'715.5
2019-Jun-15 22:30N 42°25' E 007°07'915.7
2019-Jun-15 21:57N 42°20' E 007°17'715.7
2019-Jun-15 21:30N 42°17' E 007°25'815.4
2019-Jun-15 21:00N 42°13' E 007°34'815.2
2019-Jun-15 20:30N 42°10' E 007°43'815.4
2019-Jun-15 20:00N 42°06' E 007°52'815.5
2019-Jun-15 19:30N 42°02' E 008°01'815.7
2019-Jun-15 19:00N 41°58' E 008°11'815.8
2019-Jun-15 18:30N 41°54' E 008°20'815.7
2019-Jun-15 18:00N 41°50' E 008°29'714.8
2019-Jun-15 17:30N 41°50' E 008°39'711.6
2019-Jun-15 16:54N 41°56' E 008°45'11 0.8
2019-Jun-15 03:28N 41°49' E 008°32'1217.8
2019-Jun-15 02:47N 41°55' E 008°18'15317.7
2019-Jun-14 18:08N 43°13' E 005°18'215.8
2019-Jun-14 18:00N 43°15' E 005°19'4 0.6
2019-Jun-14 10:33N 43°19' E 005°22'0 0.0
2019-Jun-14 08:33N 43°19' E 005°22'0 0.0
2019-Jun-14 07:21N 43°19' E 005°22'0 0.0
2019-Jun-14 06:51N 43°19' E 005°22'0 0.0
2019-Jun-14 05:27N 43°19' E 005°22'0 0.0
2019-Jun-14 04:53N 43°19' E 005°22'0 0.8
2019-Jun-14 04:30N 43°18' E 005°22'510.8
2019-Jun-14 04:00N 43°14' E 005°18'5417.5
2019-Jun-14 00:56N 42°45' E 006°20'817.1
2019-Jun-14 00:27N 42°41' E 006°30'1017.0
2019-Jun-13 23:52N 42°36' E 006°42'617.3
2019-Jun-13 23:31N 42°33' E 006°49'917.2
2019-Jun-13 23:01N 42°29' E 006°60'917.2
2019-Jun-13 22:30N 42°25' E 007°10'917.2
2019-Jun-13 22:01N 42°21' E 007°20'917.1
2019-Jun-13 21:31N 42°17' E 007°30'816.3
2019-Jun-13 21:01N 42°11' E 007°38'817.0
2019-Jun-13 20:31N 42°07' E 007°48'816.9
2019-Jun-13 20:00N 42°03' E 007°58'917.2
2019-Jun-13 19:31N 41°59' E 008°08'917.6
2019-Jun-13 19:00N 41°55' E 008°19'917.5
2019-Jun-13 18:30N 41°50' E 008°29'816.4
2019-Jun-13 18:00N 41°52' E 008°40'510.2
2019-Jun-13 17:29N 41°56' E 008°45'0 0.0
2019-Jun-13 16:59N 41°56' E 008°45'0 0.0
2019-Jun-13 16:20N 41°56' E 008°45'0 0.0
2019-Jun-13 15:59N 41°56' E 008°45'0 0.0
2019-Jun-13 15:29N 41°56' E 008°45'0 0.0
2019-Jun-13 14:59N 41°56' E 008°45'0 0.0
2019-Jun-13 14:29N 41°56' E 008°45'0 0.0
2019-Jun-13 13:50N 41°56' E 008°45'0 0.0
2019-Jun-13 13:29N 41°56' E 008°45'0 0.0
2019-Jun-13 12:50N 41°56' E 008°45'0 0.0
2019-Jun-13 12:29N 41°56' E 008°45'0 0.0
2019-Jun-13 11:59N 41°56' E 008°45'0 0.0
2019-Jun-13 11:23N 41°56' E 008°45'0 0.0
2019-Jun-13 10:56N 41°56' E 008°45'0 0.0
2019-Jun-13 10:29N 41°56' E 008°45'0 0.0
2019-Jun-13 09:29N 41°56' E 008°45'0 0.0
2019-Jun-13 08:59N 41°56' E 008°45'0 0.0
2019-Jun-13 07:44N 41°56' E 008°45'0 0.0
2019-Jun-13 07:23N 41°56' E 008°45'0 0.0
2019-Jun-13 06:44N 41°56' E 008°45'0 0.0
2019-Jun-13 05:56N 41°56' E 008°45'0 0.0
2019-Jun-13 05:26N 41°56' E 008°45'0 0.0
2019-Jun-13 04:56N 41°56' E 008°45'0 0.0
2019-Jun-13 04:30N 41°56' E 008°45'3 6.2
2019-Jun-13 04:01N 41°53' E 008°43'917.9
2019-Jun-13 03:31N 41°49' E 008°32'918.7
2019-Jun-13 03:00N 41°53' E 008°21'918.8
2019-Jun-13 02:30N 41°58' E 008°11'1018.4
2019-Jun-13 01:59N 42°03' E 007°59'918.4
2019-Jun-13 01:30N 42°07' E 007°49'917.9
2019-Jun-13 01:00N 42°11' E 007°38'918.2
2019-Jun-13 00:30N 42°16' E 007°28'918.3
2019-Jun-13 00:00N 42°21' E 007°17'1718.4
2019-Jun-12 23:06N 42°29' E 006°57'418.8
2019-Jun-12 22:52N 42°31' E 006°52'1018.7
2019-Jun-12 22:20N 42°36' E 006°41'1218.7
2019-Jun-12 21:41N 42°42' E 006°26'418.8
2019-Jun-12 21:29N 42°43' E 006°22'5518.7
2019-Jun-12 18:34N 43°12' E 005°18'118.1
2019-Jun-12 18:30N 43°13' E 005°18'6 8.1
2019-Jun-12 17:47N 43°19' E 005°22'0 0.0
2019-Jun-12 17:17N 43°19' E 005°22'0 0.0
2019-Jun-12 15:53N 43°19' E 005°22'0 0.0
2019-Jun-12 12:53N 43°19' E 005°22'0 0.0
2019-Jun-12 11:29N 43°19' E 005°22'0 0.0
2019-Jun-12 06:05N 43°19' E 005°22'0 0.0
2019-Jun-12 05:35N 43°19' E 005°22'0 0.0
2019-Jun-12 04:55N 43°19' E 005°22'0 0.8
2019-Jun-12 04:30N 43°18' E 005°22'510.4
2019-Jun-12 04:00N 43°14' E 005°18'7816.7
2019-Jun-11 23:21N 42°34' E 006°49'1116.1
2019-Jun-11 22:40N 42°27' E 007°01'516.4
2019-Jun-11 22:21N 42°25' E 007°07'616.4
2019-Jun-11 22:00N 42°22' E 007°14'816.7
2019-Jun-11 21:31N 42°18' E 007°24'816.7
2019-Jun-11 21:01N 42°14' E 007°34'816.7
2019-Jun-11 20:30N 42°10' E 007°44'816.4
2019-Jun-11 20:01N 42°07' E 007°54'816.5
2019-Jun-11 19:31N 42°01' E 008°02'815.9
2019-Jun-11 19:01N 41°57' E 008°12'816.6
2019-Jun-11 18:30N 41°54' E 008°22'816.5
2019-Jun-11 18:01N 41°50' E 008°31'815.8
2019-Jun-11 17:30N 41°52' E 008°42'4 1.2
2019-Jun-11 13:43N 41°56' E 008°45'0 0.0
2019-Jun-11 13:13N 41°56' E 008°45'0 0.0
2019-Jun-11 12:58N 41°56' E 008°45'0 0.0
2019-Jun-11 12:28N 41°56' E 008°45'0 0.0
2019-Jun-11 11:31N 41°56' E 008°45'0 0.0
2019-Jun-11 11:22N 41°56' E 008°45'0 0.0
2019-Jun-11 10:58N 41°56' E 008°45'0 0.0
2019-Jun-11 10:28N 41°56' E 008°45'22 3.1
2019-Jun-11 03:17N 41°57' E 008°14'615.5
2019-Jun-11 02:55N 41°60' E 008°08'2115.7
2019-Jun-11 01:34N 42°10' E 007°43'1815.5
2019-Jun-11 00:25N 42°19' E 007°22'10515.6
2019-Jun-10 17:41N 43°12' E 005°18'213.6
2019-Jun-10 17:30N 43°14' E 005°19'5 0.8
2019-Jun-10 11:49N 43°19' E 005°22'0 0.0
2019-Jun-10 06:43N 43°19' E 005°22'0 0.0
2019-Jun-10 06:13N 43°19' E 005°22'0 0.0
2019-Jun-10 06:00N 43°19' E 005°22'2 3.1
2019-Jun-10 05:30N 43°17' E 005°20'4313.8
2019-Jun-10 02:24N 42°50' E 006°05'2615.2
2019-Jun-10 00:42N 42°38' E 006°36'1214.8
2019-Jun-09 23:52N 42°32' E 006°51'514.7
2019-Jun-09 23:30N 42°29' E 006°57'714.8
2019-Jun-09 23:00N 42°25' E 007°06'714.6
2019-Jun-09 22:30N 42°22' E 007°14'714.6
2019-Jun-09 22:00N 42°18' E 007°23'714.4
2019-Jun-09 21:30N 42°14' E 007°31'714.6
2019-Jun-09 21:00N 42°11' E 007°40'714.7
2019-Jun-09 20:30N 42°08' E 007°49'714.6
2019-Jun-09 20:00N 42°04' E 007°57'714.7
2019-Jun-09 19:30N 42°00' E 008°06'714.5
2019-Jun-09 19:00N 41°57' E 008°14'714.6
2019-Jun-09 18:30N 41°53' E 008°23'714.5
2019-Jun-09 18:00N 41°49' E 008°31'713.7
2019-Jun-09 17:30N 41°51' E 008°40'6 0.5
2019-Jun-09 05:35N 41°55' E 008°45'2 9.0
2019-Jun-09 05:23N 41°54' E 008°44'615.3
2019-Jun-09 05:01N 41°50' E 008°38'1514.5
2019-Jun-09 04:01N 41°54' E 008°20'815.3
2019-Jun-09 03:31N 41°58' E 008°11'815.4
2019-Jun-09 03:01N 42°02' E 008°02'815.1
2019-Jun-09 02:31N 42°05' E 007°53'815.6
2019-Jun-09 02:01N 42°09' E 007°44'815.5
2019-Jun-09 01:30N 42°13' E 007°34'815.4
2019-Jun-09 01:00N 42°17' E 007°25'815.4
2019-Jun-09 00:31N 42°21' E 007°17'815.5
2019-Jun-09 00:01N 42°24' E 007°07'815.4
2019-Jun-08 23:31N 42°28' E 006°58'815.4
2019-Jun-08 23:01N 42°32' E 006°49'815.3
2019-Jun-08 22:31N 42°36' E 006°40'815.2
2019-Jun-08 22:01N 42°40' E 006°31'815.1
2019-Jun-08 21:31N 42°43' E 006°22'714.8
2019-Jun-08 21:01N 42°47' E 006°13'714.7
2019-Jun-08 20:30N 42°50' E 006°05'714.9
2019-Jun-08 20:00N 42°54' E 005°56'3014.9
2019-Jun-08 17:59N 43°10' E 005°21'613.4
2019-Jun-08 17:31N 43°16' E 005°20'3 2.2
2019-Jun-08 16:05N 43°19' E 005°22'0 0.0
2019-Jun-08 08:29N 43°19' E 005°22'0 0.0
2019-Jun-08 07:59N 43°19' E 005°22'0 0.0
2019-Jun-08 07:14N 43°19' E 005°22'0 0.0
2019-Jun-08 06:47N 43°19' E 005°22'0 0.0
2019-Jun-08 06:29N 43°19' E 005°22'0 0.0
2019-Jun-08 05:50N 43°19' E 005°22'0 0.0
2019-Jun-08 05:17N 43°19' E 005°22'0 0.0
2019-Jun-08 05:00N 43°19' E 005°22'2 3.2
2019-Jun-08 04:30N 43°17' E 005°20'3414.2
2019-Jun-08 02:05N 42°55' E 005°55'116.3
2019-Jun-08 02:00N 42°54' E 005°57'816.5
2019-Jun-08 01:30N 42°50' E 006°07'816.6
2019-Jun-08 01:00N 42°46' E 006°16'816.6
2019-Jun-08 00:30N 42°42' E 006°26'916.6
2019-Jun-07 23:56N 42°37' E 006°37'1816.2
2019-Jun-07 22:51N 42°29' E 006°58'716.1
2019-Jun-07 22:26N 42°25' E 007°06'716.0
2019-Jun-07 21:59N 42°22' E 007°15'715.7
2019-Jun-07 21:30N 42°18' E 007°23'815.5
2019-Jun-07 20:59N 42°14' E 007°33'915.0
2019-Jun-07 20:24N 42°10' E 007°43'614.9
2019-Jun-07 20:00N 42°07' E 007°50'714.8
2019-Jun-07 19:30N 42°04' E 007°59'815.3
2019-Jun-07 19:00N 41°60' E 008°08'815.6
2019-Jun-07 18:30N 41°56' E 008°17'915.6
2019-Jun-07 17:54N 41°51' E 008°28'915.6
2019-Jun-07 17:18N 41°51' E 008°40'5 0.5
2019-Jun-07 07:30N 41°56' E 008°45'5 1.3
2019-Jun-07 03:54N 41°51' E 008°41'718.0
2019-Jun-07 03:30N 41°50' E 008°32'918.0
2019-Jun-07 03:00N 41°54' E 008°22'918.2
2019-Jun-07 02:30N 41°57' E 008°10'816.7
2019-Jun-07 02:00N 42°01' E 008°01'917.2
2019-Jun-07 01:30N 42°06' E 007°50'917.5
2019-Jun-07 01:00N 42°10' E 007°40'917.4
2019-Jun-07 00:30N 42°15' E 007°30'917.5
2019-Jun-07 00:00N 42°19' E 007°20'917.9
2019-Jun-06 23:30N 42°24' E 007°10'917.7
2019-Jun-06 22:58N 42°28' E 006°58'1117.7
2019-Jun-06 22:23N 42°33' E 006°45'717.5
2019-Jun-06 22:00N 42°36' E 006°38'1017.5
2019-Jun-06 21:27N 42°41' E 006°27'817.6
2019-Jun-06 21:00N 42°45' E 006°17'917.7
2019-Jun-06 20:30N 42°49' E 006°07'4218.3
2019-Jun-06 18:11N 43°12' E 005°18'315.6
2019-Jun-06 18:00N 43°15' E 005°19'4 1.0
2019-Jun-06 13:45N 43°19' E 005°22'0 0.0
2019-Jun-06 13:07N 43°19' E 005°22'0 0.0
2019-Jun-06 12:23N 43°19' E 005°22'0 0.0
2019-Jun-06 10:21N 43°19' E 005°22'0 0.0
2019-Jun-06 10:00N 43°19' E 005°22'0 0.0
2019-Jun-06 09:30N 43°19' E 005°22'0 0.0
2019-Jun-06 09:00N 43°19' E 005°22'0 0.0
2019-Jun-06 08:17N 43°19' E 005°22'0 0.0
2019-Jun-06 07:59N 43°19' E 005°22'0 0.0
2019-Jun-06 06:48N 43°19' E 005°22'0 0.0
2019-Jun-06 06:11N 43°19' E 005°22'0 0.0
2019-Jun-06 05:59N 43°19' E 005°22'0 0.0
2019-Jun-06 05:29N 43°19' E 005°22'0 0.0
2019-Jun-06 05:00N 43°19' E 005°22'0 0.7
2019-Jun-06 04:28N 43°18' E 005°22'510.2
2019-Jun-06 04:01N 43°14' E 005°18'  

Dump ship's entire track history